sensor_id;sensor_type;location;lat;lon;timestamp;pressure;altitude;pressure_sealevel;temperature;humidity
56420;BME280;42323;52.170;7.538;2023-07-13T00:00:23;100958.88;;;15.72;nan
56420;BME280;42323;52.170;7.538;2023-07-13T00:02:49;100948.44;;;15.64;nan
56420;BME280;42323;52.170;7.538;2023-07-13T00:05:21;100937.44;;;15.53;nan
56420;BME280;42323;52.170;7.538;2023-07-13T00:07:49;100955.34;;;15.51;nan
56420;BME280;42323;52.170;7.538;2023-07-13T00:10:16;100915.25;;;15.21;nan
56420;BME280;42323;52.170;7.538;2023-07-13T00:12:44;100968.72;;;15.50;nan
56420;BME280;42323;52.170;7.538;2023-07-13T00:15:20;100956.13;;;15.45;nan
56420;BME280;42323;52.170;7.538;2023-07-13T00:17:53;100972.59;;;15.47;nan
56420;BME280;42323;52.170;7.538;2023-07-13T00:20:22;100967.53;;;15.46;nan
56420;BME280;42323;52.170;7.538;2023-07-13T00:22:49;100948.16;;;15.32;nan
56420;BME280;42323;52.170;7.538;2023-07-13T00:25:16;100948.75;;;15.27;nan
56420;BME280;42323;52.170;7.538;2023-07-13T00:27:44;100958.34;;;15.28;nan
56420;BME280;42323;52.170;7.538;2023-07-13T00:30:11;100972.75;;;15.32;nan
56420;BME280;42323;52.170;7.538;2023-07-13T00:32:38;100960.34;;;15.26;nan
56420;BME280;42323;52.170;7.538;2023-07-13T00:35:04;100964.19;;;15.24;nan
56420;BME280;42323;52.170;7.538;2023-07-13T00:37:31;100948.13;;;15.12;nan
56420;BME280;42323;52.170;7.538;2023-07-13T00:39:58;100970.91;;;15.20;nan
56420;BME280;42323;52.170;7.538;2023-07-13T00:42:25;100975.16;;;15.21;nan
56420;BME280;42323;52.170;7.538;2023-07-13T00:47:40;100979.00;;;15.12;nan
56420;BME280;42323;52.170;7.538;2023-07-13T00:50:10;100978.19;;;15.11;nan
56420;BME280;42323;52.170;7.538;2023-07-13T00:52:41;100977.50;;;15.02;nan
56420;BME280;42323;52.170;7.538;2023-07-13T00:55:09;100977.13;;;15.05;nan
56420;BME280;42323;52.170;7.538;2023-07-13T00:57:37;100989.06;;;15.01;nan
56420;BME280;42323;52.170;7.538;2023-07-13T01:00:06;100965.09;;;14.90;nan
56420;BME280;42323;52.170;7.538;2023-07-13T01:02:38;100984.22;;;14.98;nan
56420;BME280;42323;52.170;7.538;2023-07-13T01:05:14;100977.06;;;14.92;nan
56420;BME280;42323;52.170;7.538;2023-07-13T01:07:41;100983.56;;;14.96;nan
56420;BME280;42323;52.170;7.538;2023-07-13T01:10:08;100958.56;;;14.86;nan
56420;BME280;42323;52.170;7.538;2023-07-13T01:12:35;100977.44;;;14.89;nan
56420;BME280;42323;52.170;7.538;2023-07-13T01:15:03;100976.63;;;14.89;nan
56420;BME280;42323;52.170;7.538;2023-07-13T01:17:33;100964.44;;;14.81;nan
56420;BME280;42323;52.170;7.538;2023-07-13T01:20:00;100976.03;;;14.87;nan
56420;BME280;42323;52.170;7.538;2023-07-13T01:22:27;100976.03;;;14.87;nan
56420;BME280;42323;52.170;7.538;2023-07-13T01:24:54;100969.31;;;14.84;nan
56420;BME280;42323;52.170;7.538;2023-07-13T01:27:24;100969.94;;;14.86;nan
56420;BME280;42323;52.170;7.538;2023-07-13T01:29:52;100972.56;;;14.86;nan
56420;BME280;42323;52.170;7.538;2023-07-13T01:32:22;100969.94;;;14.86;nan
56420;BME280;42323;52.170;7.538;2023-07-13T01:34:51;100953.69;;;14.83;nan
56420;BME280;42323;52.170;7.538;2023-07-13T01:37:21;100967.31;;;14.86;nan
56420;BME280;42323;52.170;7.538;2023-07-13T01:39:47;100951.19;;;14.74;nan
56420;BME280;42323;52.170;7.538;2023-07-13T01:42:14;100957.69;;;14.72;nan
56420;BME280;42323;52.170;7.538;2023-07-13T01:44:41;100971.94;;;14.77;nan
56420;BME280;42323;52.170;7.538;2023-07-13T01:47:08;100950.97;;;14.69;nan
56420;BME280;42323;52.170;7.538;2023-07-13T01:49:34;100953.19;;;14.66;nan
56420;BME280;42323;52.170;7.538;2023-07-13T01:52:01;100963.97;;;14.71;nan
56420;BME280;42323;52.170;7.538;2023-07-13T01:54:27;100959.66;;;14.63;nan
56420;BME280;42323;52.170;7.538;2023-07-13T01:56:54;100944.00;;;14.55;nan
56420;BME280;42323;52.170;7.538;2023-07-13T01:59:21;100963.34;;;14.69;nan
56420;BME280;42323;52.170;7.538;2023-07-13T02:01:47;100964.69;;;14.58;nan
56420;BME280;42323;52.170;7.538;2023-07-13T02:04:14;100959.19;;;14.53;nan
56420;BME280;42323;52.170;7.538;2023-07-13T02:06:41;100961.63;;;14.54;nan
56420;BME280;42323;52.170;7.538;2023-07-13T02:09:07;100966.31;;;14.59;nan
56420;BME280;42323;52.170;7.538;2023-07-13T02:11:34;100936.38;;;14.39;nan
56420;BME280;42323;52.170;7.538;2023-07-13T02:14:01;100927.03;;;14.36;nan
56420;BME280;42323;52.170;7.538;2023-07-13T02:16:29;100943.47;;;14.38;nan
56420;BME280;42323;52.170;7.538;2023-07-13T02:18:56;100954.63;;;14.40;nan
56420;BME280;42323;52.170;7.538;2023-07-13T02:21:23;100969.94;;;14.51;nan
56420;BME280;42323;52.170;7.538;2023-07-13T02:23:50;100980.94;;;14.55;nan
56420;BME280;42323;52.170;7.538;2023-07-13T02:26:17;100965.41;;;14.45;nan
56420;BME280;42323;52.170;7.538;2023-07-13T02:28:43;100956.03;;;14.36;nan
56420;BME280;42323;52.170;7.538;2023-07-13T02:31:13;100964.16;;;14.41;nan
56420;BME280;42323;52.170;7.538;2023-07-13T02:33:40;100973.91;;;14.41;nan
56420;BME280;42323;52.170;7.538;2023-07-13T02:36:07;100961.44;;;14.28;nan
56420;BME280;42323;52.170;7.538;2023-07-13T02:38:35;100993.16;;;14.41;nan
56420;BME280;42323;52.170;7.538;2023-07-13T02:41:06;100990.09;;;14.38;nan
56420;BME280;42323;52.170;7.538;2023-07-13T02:43:33;100962.81;;;14.24;nan
56420;BME280;42323;52.170;7.538;2023-07-13T02:46:01;100970.34;;;14.27;nan
56420;BME280;42323;52.170;7.538;2023-07-13T02:48:33;100975.25;;;14.30;nan
56420;BME280;42323;52.170;7.538;2023-07-13T02:51:00;100970.13;;;14.22;nan
56420;BME280;42323;52.170;7.538;2023-07-13T02:53:27;100918.53;;;13.85;nan
56420;BME280;42323;52.170;7.538;2023-07-13T02:55:53;100916.91;;;13.84;nan
56420;BME280;42323;52.170;7.538;2023-07-13T02:58:20;100974.34;;;14.16;nan
56420;BME280;42323;52.170;7.538;2023-07-13T03:00:48;100994.66;;;14.22;nan
56420;BME280;42323;52.170;7.538;2023-07-13T03:03:16;100957.59;;;14.02;nan
56420;BME280;42323;52.170;7.538;2023-07-13T03:05:44;100988.94;;;14.19;nan
56420;BME280;42323;52.170;7.538;2023-07-13T03:08:12;100962.13;;;14.09;nan
56420;BME280;42323;52.170;7.538;2023-07-13T03:10:38;100948.03;;;13.95;nan
56420;BME280;42323;52.170;7.538;2023-07-13T03:13:06;100952.72;;;13.99;nan
56420;BME280;42323;52.170;7.538;2023-07-13T03:15:33;100956.75;;;13.95;nan
56420;BME280;42323;52.170;7.538;2023-07-13T03:17:59;100989.72;;;14.13;nan
56420;BME280;42323;52.170;7.538;2023-07-13T03:20:26;100932.16;;;13.67;nan
56420;BME280;42323;52.170;7.538;2023-07-13T03:22:53;100938.59;;;13.64;nan
56420;BME280;42323;52.170;7.538;2023-07-13T03:25:19;100920.25;;;13.49;nan
56420;BME280;42323;52.170;7.538;2023-07-13T03:27:46;100918.38;;;13.43;nan
56420;BME280;42323;52.170;7.538;2023-07-13T03:30:13;101013.69;;;13.96;nan
56420;BME280;42323;52.170;7.538;2023-07-13T03:32:39;100933.78;;;13.46;nan
56420;BME280;42323;52.170;7.538;2023-07-13T03:35:10;100964.81;;;13.72;nan
56420;BME280;42323;52.170;7.538;2023-07-13T03:37:36;100964.13;;;13.64;nan
56420;BME280;42323;52.170;7.538;2023-07-13T03:40:10;100921.81;;;13.44;nan
56420;BME280;42323;52.170;7.538;2023-07-13T03:42:37;101009.47;;;14.02;nan
56420;BME280;42323;52.170;7.538;2023-07-13T03:45:04;101001.97;;;13.99;nan
56420;BME280;42323;52.170;7.538;2023-07-13T03:47:30;100979.94;;;13.85;nan
56420;BME280;42323;52.170;7.538;2023-07-13T03:49:57;101000.50;;;13.96;nan
56420;BME280;42323;52.170;7.538;2023-07-13T03:52:24;100989.53;;;13.93;nan
56420;BME280;42323;52.170;7.538;2023-07-13T03:54:50;101002.34;;;13.96;nan
56420;BME280;42323;52.170;7.538;2023-07-13T03:57:18;101011.53;;;14.06;nan
56420;BME280;42323;52.170;7.538;2023-07-13T03:59:44;100991.97;;;13.94;nan
56420;BME280;42323;52.170;7.538;2023-07-13T04:02:11;101014.94;;;14.00;nan
56420;BME280;42323;52.170;7.538;2023-07-13T04:04:38;101006.22;;;14.00;nan
56420;BME280;42323;52.170;7.538;2023-07-13T04:07:07;100990.41;;;14.00;nan
56420;BME280;42323;52.170;7.538;2023-07-13T04:09:35;100988.38;;;14.02;nan
56420;BME280;42323;52.170;7.538;2023-07-13T04:12:02;101007.19;;;14.20;nan
56420;BME280;42323;52.170;7.538;2023-07-13T04:14:28;101028.44;;;14.40;nan
56420;BME280;42323;52.170;7.538;2023-07-13T04:16:55;101021.59;;;14.46;nan
56420;BME280;42323;52.170;7.538;2023-07-13T04:19:22;101018.13;;;14.45;nan
56420;BME280;42323;52.170;7.538;2023-07-13T04:21:48;101031.84;;;14.55;nan
56420;BME280;42323;52.170;7.538;2023-07-13T04:24:15;101032.84;;;14.54;nan
56420;BME280;42323;52.170;7.538;2023-07-13T04:26:41;101041.03;;;14.66;nan
56420;BME280;42323;52.170;7.538;2023-07-13T04:29:08;101036.19;;;14.70;nan
56420;BME280;42323;52.170;7.538;2023-07-13T04:31:34;101043.31;;;14.76;nan
56420;BME280;42323;52.170;7.538;2023-07-13T04:34:01;101045.97;;;14.76;nan
56420;BME280;42323;52.170;7.538;2023-07-13T04:36:29;101041.69;;;14.75;nan
56420;BME280;42323;52.170;7.538;2023-07-13T04:38:55;101045.22;;;14.82;nan
56420;BME280;42323;52.170;7.538;2023-07-13T04:41:22;101029.53;;;14.74;nan
56420;BME280;42323;52.170;7.538;2023-07-13T04:43:49;101034.06;;;14.87;nan
56420;BME280;42323;52.170;7.538;2023-07-13T04:46:17;101046.53;;;14.99;nan
56420;BME280;42323;52.170;7.538;2023-07-13T04:48:44;101048.16;;;15.00;nan
56420;BME280;42323;52.170;7.538;2023-07-13T04:51:11;100959.97;;;14.47;nan
56420;BME280;42323;52.170;7.538;2023-07-13T04:53:38;101011.50;;;14.77;nan
56420;BME280;42323;52.170;7.538;2023-07-13T04:56:05;101047.78;;;15.10;nan
56420;BME280;42323;52.170;7.538;2023-07-13T04:58:33;100974.72;;;14.69;nan
56420;BME280;42323;52.170;7.538;2023-07-13T05:01:02;101043.81;;;15.21;nan
56420;BME280;42323;52.170;7.538;2023-07-13T05:03:29;101027.31;;;15.19;nan
56420;BME280;42323;52.170;7.538;2023-07-13T05:06:06;101041.59;;;15.31;nan
56420;BME280;42323;52.170;7.538;2023-07-13T05:08:33;101048.94;;;15.36;nan
56420;BME280;42323;52.170;7.538;2023-07-13T05:11:01;101054.63;;;15.39;nan
56420;BME280;42323;52.170;7.538;2023-07-13T05:13:28;101060.91;;;15.31;nan
56420;BME280;42323;52.170;7.538;2023-07-13T05:16:01;101066.75;;;15.27;nan
56420;BME280;42323;52.170;7.538;2023-07-13T05:18:28;101073.66;;;15.21;nan
56420;BME280;42323;52.170;7.538;2023-07-13T05:21:13;101047.78;;;15.03;nan
56420;BME280;42323;52.170;7.538;2023-07-13T05:23:40;101059.56;;;15.08;nan
56420;BME280;42323;52.170;7.538;2023-07-13T05:26:08;101056.22;;;14.92;nan
56420;BME280;42323;52.170;7.538;2023-07-13T05:28:35;101070.66;;;14.96;nan
56420;BME280;42323;52.170;7.538;2023-07-13T05:31:03;101044.25;;;14.90;nan
56420;BME280;42323;52.170;7.538;2023-07-13T05:33:29;101060.19;;;15.10;nan
56420;BME280;42323;52.170;7.538;2023-07-13T05:35:56;101052.25;;;15.10;nan
56420;BME280;42323;52.170;7.538;2023-07-13T05:38:23;101080.16;;;15.25;nan
56420;BME280;42323;52.170;7.538;2023-07-13T05:40:50;101082.81;;;15.32;nan
56420;BME280;42323;52.170;7.538;2023-07-13T05:43:17;101060.25;;;15.23;nan
56420;BME280;42323;52.170;7.538;2023-07-13T05:45:43;101088.59;;;15.42;nan
56420;BME280;42323;52.170;7.538;2023-07-13T05:48:10;101086.75;;;15.43;nan
56420;BME280;42323;52.170;7.538;2023-07-13T05:50:37;101057.44;;;15.24;nan
56420;BME280;42323;52.170;7.538;2023-07-13T05:53:04;101063.53;;;15.25;nan
56420;BME280;42323;52.170;7.538;2023-07-13T05:55:31;101077.59;;;15.45;nan
56420;BME280;42323;52.170;7.538;2023-07-13T05:57:58;101088.44;;;15.57;nan
56420;BME280;42323;52.170;7.538;2023-07-13T06:00:25;101063.59;;;15.45;nan
56420;BME280;42323;52.170;7.538;2023-07-13T06:02:52;101102.50;;;15.64;nan
56420;BME280;42323;52.170;7.538;2023-07-13T06:05:19;101090.13;;;15.65;nan
56420;BME280;42323;52.170;7.538;2023-07-13T06:07:46;101105.19;;;15.77;nan
56420;BME280;42323;52.170;7.538;2023-07-13T06:10:12;101107.47;;;15.80;nan
56420;BME280;42323;52.170;7.538;2023-07-13T06:12:39;101100.75;;;15.91;nan
56420;BME280;42323;52.170;7.538;2023-07-13T06:15:06;101107.69;;;16.05;nan
56420;BME280;42323;52.170;7.538;2023-07-13T06:17:32;101107.72;;;16.12;nan
56420;BME280;42323;52.170;7.538;2023-07-13T06:19:59;101104.47;;;16.10;nan
56420;BME280;42323;52.170;7.538;2023-07-13T06:22:26;101080.03;;;16.01;nan
56420;BME280;42323;52.170;7.538;2023-07-13T06:24:52;101109.75;;;16.23;nan
56420;BME280;42323;52.170;7.538;2023-07-13T06:27:19;101118.34;;;16.32;nan
56420;BME280;42323;52.170;7.538;2023-07-13T06:29:46;101096.16;;;16.26;nan
56420;BME280;42323;52.170;7.538;2023-07-13T06:32:12;101118.94;;;16.34;nan
56420;BME280;42323;52.170;7.538;2023-07-13T06:34:39;101125.66;;;16.43;nan
56420;BME280;42323;52.170;7.538;2023-07-13T06:37:09;101135.25;;;16.51;nan
56420;BME280;42323;52.170;7.538;2023-07-13T06:39:36;101135.22;;;16.58;nan
56420;BME280;42323;52.170;7.538;2023-07-13T06:42:03;101121.22;;;16.50;nan
56420;BME280;42323;52.170;7.538;2023-07-13T06:44:30;101131.16;;;16.62;nan
56420;BME280;42323;52.170;7.538;2023-07-13T06:46:56;101135.66;;;16.68;nan
56420;BME280;42323;52.170;7.538;2023-07-13T06:49:23;101142.41;;;16.77;nan
56420;BME280;42323;52.170;7.538;2023-07-13T06:51:49;101131.41;;;16.73;nan
56420;BME280;42323;52.170;7.538;2023-07-13T06:54:16;101107.97;;;16.70;nan
56420;BME280;42323;52.170;7.538;2023-07-13T06:56:43;101146.66;;;17.04;nan
56420;BME280;42323;52.170;7.538;2023-07-13T06:59:09;101143.00;;;17.05;nan
56420;BME280;42323;52.170;7.538;2023-07-13T07:01:36;101121.59;;;17.00;nan
56420;BME280;42323;52.170;7.538;2023-07-13T07:04:04;101143.97;;;17.24;nan
56420;BME280;42323;52.170;7.538;2023-07-13T07:06:31;101147.03;;;17.21;nan
56420;BME280;42323;52.170;7.538;2023-07-13T07:08:58;101146.59;;;17.31;nan
56420;BME280;42323;52.170;7.538;2023-07-13T07:11:25;101150.47;;;17.42;nan
56420;BME280;42323;52.170;7.538;2023-07-13T07:13:52;101135.38;;;17.42;nan
56420;BME280;42323;52.170;7.538;2023-07-13T07:16:20;101151.41;;;17.61;nan
56420;BME280;42323;52.170;7.538;2023-07-13T07:18:47;101116.38;;;17.59;nan
56420;BME280;42323;52.170;7.538;2023-07-13T07:21:14;101142.81;;;17.72;nan
56420;BME280;42323;52.170;7.538;2023-07-13T07:23:43;101140.81;;;17.61;nan
56420;BME280;42323;52.170;7.538;2023-07-13T07:26:10;101134.28;;;17.63;nan
56420;BME280;42323;52.170;7.538;2023-07-13T07:28:44;101157.88;;;17.78;nan
56420;BME280;42323;52.170;7.538;2023-07-13T07:31:13;101151.53;;;17.86;nan
56420;BME280;42323;52.170;7.538;2023-07-13T07:33:43;101128.31;;;17.81;nan
56420;BME280;42323;52.170;7.538;2023-07-13T07:36:09;101127.22;;;17.95;nan
56420;BME280;42323;52.170;7.538;2023-07-13T07:38:39;101147.69;;;18.20;nan
56420;BME280;42323;52.170;7.538;2023-07-13T07:41:06;101150.91;;;18.28;nan
56420;BME280;42323;52.170;7.538;2023-07-13T07:43:35;101134.97;;;18.35;nan
56420;BME280;42323;52.170;7.538;2023-07-13T07:46:03;101116.97;;;18.37;nan
56420;BME280;42323;52.170;7.538;2023-07-13T07:48:30;101151.91;;;18.59;nan
56420;BME280;42323;52.170;7.538;2023-07-13T07:51:00;101009.09;;;17.61;nan
56420;BME280;42323;52.170;7.538;2023-07-13T07:53:27;101032.06;;;17.80;nan
56420;BME280;42323;52.170;7.538;2023-07-13T07:55:53;101088.66;;;18.31;nan
56420;BME280;42323;52.170;7.538;2023-07-13T07:58:23;101044.25;;;18.20;nan
56420;BME280;42323;52.170;7.538;2023-07-13T08:00:53;101101.25;;;18.61;nan
56420;BME280;42323;52.170;7.538;2023-07-13T08:03:25;101138.94;;;19.01;nan
56420;BME280;42323;52.170;7.538;2023-07-13T08:05:55;101125.53;;;18.64;nan
56420;BME280;42323;52.170;7.538;2023-07-13T08:08:24;101158.31;;;18.83;nan
56420;BME280;42323;52.170;7.538;2023-07-13T08:10:52;101140.94;;;19.05;nan
56420;BME280;42323;52.170;7.538;2023-07-13T08:13:23;101148.31;;;19.40;nan
56420;BME280;42323;52.170;7.538;2023-07-13T08:15:55;101158.38;;;19.57;nan
56420;BME280;42323;52.170;7.538;2023-07-13T08:18:22;101138.44;;;19.47;nan
56420;BME280;42323;52.170;7.538;2023-07-13T08:20:49;101114.22;;;19.37;nan
56420;BME280;42323;52.170;7.538;2023-07-13T08:23:15;101053.19;;;18.94;nan
56420;BME280;42323;52.170;7.538;2023-07-13T08:25:50;101058.13;;;18.90;nan
56420;BME280;42323;52.170;7.538;2023-07-13T08:28:17;101055.69;;;18.70;nan
56420;BME280;42323;52.170;7.538;2023-07-13T08:31:08;101117.00;;;19.05;nan
56420;BME280;42323;52.170;7.538;2023-07-13T08:33:39;101042.22;;;18.65;nan
56420;BME280;42323;52.170;7.538;2023-07-13T08:36:07;101140.56;;;19.20;nan
56420;BME280;42323;52.170;7.538;2023-07-13T08:38:34;101067.72;;;18.91;nan
56420;BME280;42323;52.170;7.538;2023-07-13T08:41:12;101049.56;;;18.70;nan
56420;BME280;42323;52.170;7.538;2023-07-13T08:43:49;101172.34;;;19.52;nan
56420;BME280;42323;52.170;7.538;2023-07-13T08:46:37;101136.88;;;19.58;nan
56420;BME280;42323;52.170;7.538;2023-07-13T08:49:10;101159.94;;;19.83;nan
56420;BME280;42323;52.170;7.538;2023-07-13T08:51:51;101169.38;;;19.78;nan
56420;BME280;42323;52.170;7.538;2023-07-13T08:54:20;101172.84;;;19.79;nan
56420;BME280;42323;52.170;7.538;2023-07-13T08:56:52;101152.16;;;19.81;nan
56420;BME280;42323;52.170;7.538;2023-07-13T08:59:24;101147.84;;;19.98;nan
56420;BME280;42323;52.170;7.538;2023-07-13T09:04:33;101152.56;;;20.26;nan
56420;BME280;42323;52.170;7.538;2023-07-13T09:12:40;101147.22;;;20.57;nan
56420;BME280;42323;52.170;7.538;2023-07-13T09:15:31;101142.72;;;20.80;nan
56420;BME280;42323;52.170;7.538;2023-07-13T09:18:16;101133.72;;;20.82;nan
56420;BME280;42323;52.170;7.538;2023-07-13T09:20:58;101149.44;;;21.18;nan
56420;BME280;42323;52.170;7.538;2023-07-13T09:23:28;101144.91;;;21.30;nan
56420;BME280;42323;52.170;7.538;2023-07-13T09:26:03;101152.69;;;21.20;nan
56420;BME280;42323;52.170;7.538;2023-07-13T09:28:37;101138.88;;;21.23;nan
56420;BME280;42323;52.170;7.538;2023-07-13T09:31:11;101144.00;;;21.37;nan
56420;BME280;42323;52.170;7.538;2023-07-13T09:33:40;101162.34;;;21.73;nan
56420;BME280;42323;52.170;7.538;2023-07-13T09:36:28;101149.50;;;21.99;nan
56420;BME280;42323;52.170;7.538;2023-07-13T09:39:04;101141.56;;;22.16;nan
56420;BME280;42323;52.170;7.538;2023-07-13T09:47:02;101166.19;;;22.68;nan
56420;BME280;42323;52.170;7.538;2023-07-13T09:49:36;101158.91;;;22.47;nan
56420;BME280;42323;52.170;7.538;2023-07-13T09:52:14;101068.09;;;21.85;nan
56420;BME280;42323;52.170;7.538;2023-07-13T09:55:36;101100.22;;;22.35;nan
56420;BME280;42323;52.170;7.538;2023-07-13T09:58:19;101108.88;;;22.42;nan
56420;BME280;42323;52.170;7.538;2023-07-13T10:01:04;101130.88;;;22.16;nan
56420;BME280;42323;52.170;7.538;2023-07-13T10:03:37;101079.72;;;22.07;nan
56420;BME280;42323;52.170;7.538;2023-07-13T10:06:21;101142.78;;;23.31;nan
56420;BME280;42323;52.170;7.538;2023-07-13T10:08:59;101108.63;;;22.44;nan
56420;BME280;42323;52.170;7.538;2023-07-13T10:11:39;101134.59;;;22.82;nan
56420;BME280;42323;52.170;7.538;2023-07-13T10:14:41;101124.22;;;22.86;nan
56420;BME280;42323;52.170;7.538;2023-07-13T10:17:12;101187.44;;;23.52;nan
56420;BME280;42323;52.170;7.538;2023-07-13T10:19:47;101091.91;;;23.04;nan
56420;BME280;42323;52.170;7.538;2023-07-13T10:25:24;101184.53;;;24.25;nan
56420;BME280;42323;52.170;7.538;2023-07-13T10:28:00;101202.53;;;23.59;nan
56420;BME280;42323;52.170;7.538;2023-07-13T10:30:34;101169.53;;;23.31;nan
56420;BME280;42323;52.170;7.538;2023-07-13T10:33:03;101188.59;;;23.78;nan
56420;BME280;42323;52.170;7.538;2023-07-13T10:35:35;101154.97;;;22.88;nan
56420;BME280;42323;52.170;7.538;2023-07-13T10:38:07;101171.38;;;24.45;nan
56420;BME280;42323;52.170;7.538;2023-07-13T10:40:39;101161.28;;;25.42;nan
56420;BME280;42323;52.170;7.538;2023-07-13T10:45:42;101173.34;;;26.84;nan
56420;BME280;42323;52.170;7.538;2023-07-13T10:48:13;101173.00;;;27.26;nan
56420;BME280;42323;52.170;7.538;2023-07-13T10:50:45;101151.72;;;27.35;nan
56420;BME280;42323;52.170;7.538;2023-07-13T10:53:29;101166.34;;;26.42;nan
56420;BME280;42323;52.170;7.538;2023-07-13T10:56:02;101173.47;;;25.75;nan
56420;BME280;42323;52.170;7.538;2023-07-13T11:03:56;101181.66;;;26.16;nan
56420;BME280;42323;52.170;7.538;2023-07-13T11:06:32;101172.19;;;25.25;nan
56420;BME280;42323;52.170;7.538;2023-07-13T11:12:01;101160.91;;;25.18;nan
56420;BME280;42323;52.170;7.538;2023-07-13T11:15:03;101090.91;;;25.30;nan
56420;BME280;42323;52.170;7.538;2023-07-13T11:20:41;101146.50;;;23.96;nan
56420;BME280;42323;52.170;7.538;2023-07-13T11:23:28;101099.72;;;24.68;nan
56420;BME280;42323;52.170;7.538;2023-07-13T11:26:00;101141.75;;;25.05;nan
56420;BME280;42323;52.170;7.538;2023-07-13T11:31:11;101154.00;;;26.72;nan
56420;BME280;42323;52.170;7.538;2023-07-13T11:33:51;101144.56;;;25.30;nan
56420;BME280;42323;52.170;7.538;2023-07-13T11:36:45;101059.34;;;23.83;nan
56420;BME280;42323;52.170;7.538;2023-07-13T11:39:39;101105.22;;;23.43;nan
56420;BME280;42323;52.170;7.538;2023-07-13T11:42:16;101120.47;;;24.45;nan
56420;BME280;42323;52.170;7.538;2023-07-13T11:44:49;101123.69;;;23.88;nan
56420;BME280;42323;52.170;7.538;2023-07-13T11:47:40;101186.59;;;24.18;nan
56420;BME280;42323;52.170;7.538;2023-07-13T11:50:23;101182.84;;;23.92;nan
56420;BME280;42323;52.170;7.538;2023-07-13T11:53:20;101113.66;;;23.57;nan
56420;BME280;42323;52.170;7.538;2023-07-13T11:55:52;101123.97;;;23.04;nan
56420;BME280;42323;52.170;7.538;2023-07-13T11:58:26;101106.75;;;22.27;nan
56420;BME280;42323;52.170;7.538;2023-07-13T12:00:58;101131.63;;;21.99;nan
56420;BME280;42323;52.170;7.538;2023-07-13T12:03:27;101189.59;;;22.16;nan
56420;BME280;42323;52.170;7.538;2023-07-13T12:06:06;101208.34;;;21.92;nan
56420;BME280;42323;52.170;7.538;2023-07-13T12:08:48;101232.06;;;21.07;nan
56420;BME280;42323;52.170;7.538;2023-07-13T12:11:16;101239.50;;;19.84;nan
56420;BME280;42323;52.170;7.538;2023-07-13T12:13:45;101265.63;;;18.62;nan
56420;BME280;42323;52.170;7.538;2023-07-13T12:45:40;101165.66;;;24.69;55.84
56420;BME280;42323;52.170;7.538;2023-07-13T12:58:13;101208.28;;;25.55;51.84
56420;BME280;42323;52.170;7.538;2023-07-13T13:01:04;101169.69;;;24.39;55.54
56420;BME280;42323;52.170;7.538;2023-07-13T13:03:56;101121.63;;;23.29;54.76
56420;BME280;42323;52.170;7.538;2023-07-13T13:06:38;101174.19;;;22.51;58.73
56420;BME280;42323;52.170;7.538;2023-07-13T13:09:17;101113.53;;;21.09;62.52
56420;BME280;42323;52.170;7.538;2023-07-13T13:11:57;101195.44;;;21.02;65.63
56420;BME280;42323;52.170;7.538;2023-07-13T13:14:33;101169.88;;;20.47;68.09
56420;BME280;42323;52.170;7.538;2023-07-13T13:43:22;101213.34;;;18.94;69.67
56420;BME280;42323;52.170;7.538;2023-07-13T13:46:43;101274.75;;;19.54;70.69
56420;BME280;42323;52.170;7.538;2023-07-13T13:52:36;101101.09;;;18.30;68.54
56420;BME280;42323;52.170;7.538;2023-07-13T13:55:36;101281.66;;;19.37;68.91
56420;BME280;42323;52.170;7.538;2023-07-13T13:58:03;101227.34;;;18.83;67.98
56420;BME280;42323;52.170;7.538;2023-07-13T14:00:39;101161.91;;;18.32;67.53
56420;BME280;42323;52.170;7.538;2023-07-13T14:03:49;101168.25;;;18.31;68.84
56420;BME280;42323;52.170;7.538;2023-07-13T14:06:24;101244.94;;;18.77;69.24
56420;BME280;42323;52.170;7.538;2023-07-13T14:08:51;101230.09;;;18.63;67.45
56420;BME280;42323;52.170;7.538;2023-07-13T14:11:30;101214.47;;;18.48;69.07
56420;BME280;42323;52.170;7.538;2023-07-13T14:14:05;101293.94;;;19.13;69.26
56420;BME280;42323;52.170;7.538;2023-07-13T14:16:33;101230.16;;;18.88;68.84
56420;BME280;42323;52.170;7.538;2023-07-13T14:19:14;101236.41;;;19.00;68.47
56420;BME280;42323;52.170;7.538;2023-07-13T14:22:14;101283.00;;;19.46;68.06
56420;BME280;42323;52.170;7.538;2023-07-13T14:24:55;101312.91;;;19.85;68.65
56420;BME280;42323;52.170;7.538;2023-07-13T14:27:45;101269.66;;;19.78;66.78
56420;BME280;42323;52.170;7.538;2023-07-13T14:30:20;101267.56;;;19.98;65.74
56420;BME280;42323;52.170;7.538;2023-07-13T14:32:48;101239.00;;;20.24;63.02
56420;BME280;42323;52.170;7.538;2023-07-13T14:35:21;101240.94;;;20.77;61.50
56420;BME280;42323;52.170;7.538;2023-07-13T14:38:17;101295.69;;;21.97;57.11
56420;BME280;42323;52.170;7.538;2023-07-13T14:50:24;101242.09;;;20.69;58.26
56420;BME280;42323;52.170;7.538;2023-07-13T14:53:38;101279.00;;;21.08;58.06
56420;BME280;42323;52.170;7.538;2023-07-13T14:56:17;101189.03;;;20.56;57.54
56420;BME280;42323;52.170;7.538;2023-07-13T14:58:48;101291.41;;;21.14;57.79
56420;BME280;42323;52.170;7.538;2023-07-13T15:01:35;101296.69;;;20.90;59.27
56420;BME280;42323;52.170;7.538;2023-07-13T15:04:03;101233.13;;;20.52;59.97
56420;BME280;42323;52.170;7.538;2023-07-13T15:06:31;101194.56;;;20.24;58.38
56420;BME280;42323;52.170;7.538;2023-07-13T15:09:14;101234.16;;;20.33;56.36
56420;BME280;42323;52.170;7.538;2023-07-13T15:11:44;101165.22;;;20.01;57.13
56420;BME280;42323;52.170;7.538;2023-07-13T15:14:32;101269.41;;;20.76;55.59
56420;BME280;42323;52.170;7.538;2023-07-13T15:17:01;101177.22;;;20.22;54.13
56420;BME280;42323;52.170;7.538;2023-07-13T15:19:37;101250.84;;;21.12;54.39
56420;BME280;42323;52.170;7.538;2023-07-13T15:22:18;101202.72;;;22.05;50.29
56420;BME280;42323;52.170;7.538;2023-07-13T15:24:58;101283.91;;;25.05;43.42